Flight Track Log - Related Links

Times and Time Zones

All times are in EDT time to prevent confusion due to time zone crossing. See the CTL14 flight status page for this flight to view local times or setup timezone preferences in your user account.

Time Position Orientation Groundspeed Altitude Reporting Facility
EDT Latitude Longitude Course Direction KTS MPH feet Rate Location/Type
Fri 12:00:09 AM 42.1500 -87.8167 66° East 159 183 2,600  Level Chicago TRACON
Fri 12:01:05 AM 42.1533 -87.7622 85° East 154 177 3,400 769 Climbing Chicago Center
Fri 12:02:06 AM 42.1544 -87.7042 89° East 153 176 4,100 738 Climbing Chicago Center
Fri 12:03:07 AM 42.1603 -87.6447 82° East 157 181 4,900 689 Climbing Chicago Center
Fri 12:04:08 AM 42.1625 -87.5825 87° East 162 186 5,500 492 Climbing Chicago Center
Fri 12:05:09 AM 42.1642 -87.5225 88° East 161 185 5,900 492 Climbing Chicago Center
Fri 12:06:10 AM 42.1658 -87.4622 88° East 162 186 6,500 590 Climbing Chicago Center
Fri 12:07:11 AM 42.1672 -87.4061 88° East 153 176 7,100 590 Climbing Chicago Center
Fri 12:08:12 AM 42.1692 -87.3569 87° East 136 157 7,700 492 Climbing Chicago Center
Fri 12:09:13 AM 42.1697 -87.2986 89° East 131 151 8,100 393 Climbing Chicago Center
Fri 12:10:14 AM 42.1694 -87.2519 90° East 127 146 8,500 344 Climbing Chicago Center
Fri 12:11:15 AM 42.1700 -87.2047 89° East 126 145 8,800 197 Climbing Chicago Center
Fri 12:12:16 AM 42.1572 -87.1764 121° Southeast 96 110 8,900 98 Climbing Chicago Center
Fri 12:13:17 AM 42.1428 -87.1372 116° Southeast 112 129 9,000 98 Climbing Chicago Center
Fri 12:14:18 AM 42.1267 -87.0981 119° Southeast 120 138 9,100  Climbing Chicago Center
Fri 12:15:19 AM 42.1081 -87.0556 121° Southeast 128 147 9,000  Descending Chicago Center
Fri 12:16:20 AM 42.0894 -87.0156 122° Southeast 127 146 9,100 49 Climbing Chicago Center
Fri 12:17:21 AM 42.0700 -86.9725 121° Southeast 133 153 9,100 49 Level Chicago Center
Fri 12:18:22 AM 42.0500 -86.9303 123° Southeast 135 155 9,200  Climbing Chicago Center
Fri 12:19:23 AM 42.0306 -86.8858 120° Southeast 137 158 9,100  Descending Chicago Center
Fri 12:20:24 AM 42.0061 -86.8319 121° Southeast 140 161 9,200 50 Climbing Chicago Center
Fri 12:21:24 AM 41.9850 -86.7886 123° Southeast 140 161 9,200  Level Chicago Center
Fri 12:22:25 AM 41.9642 -86.7433 122° Southeast 142 163 9,200 -98 Level Chicago Center
Fri 12:23:26 AM 41.9428 -86.7000 124° Southeast 140 161 9,000 -98 Descending Chicago Center
Fri 12:24:27 AM 41.9244 -86.6597 121° Southeast 140 161 9,000 98 Level Chicago Center
Fri 12:25:28 AM 41.9031 -86.6131 122° Southeast 145 167 9,200 98 Climbing Chicago Center
Fri 12:26:29 AM 41.8822 -86.5686 122° Southeast 143 165 9,200  Level Chicago Center
Fri 12:27:30 AM 41.8567 -86.5150 123° Southeast 142 163 9,200 -98 Level Chicago Center
Fri 12:28:31 AM 41.8356 -86.4703 122° Southeast 142 163 9,000  Descending Chicago Center
Fri 12:29:32 AM 41.8136 -86.4272 124° Southeast 141 162 9,200  Climbing Chicago Center
Fri 12:30:33 AM 41.7906 -86.3847 126° Southeast 141 162 9,000 -99 Descending Chicago Center
Fri 12:31:33 AM 41.7656 -86.3375 125° Southeast 152 175 9,000  Level Chicago Center
Fri 12:32:34 AM 41.7428 -86.2892 122° Southeast 154 177 9,000 49 Level Chicago Center
Fri 12:33:35 AM 41.7183 -86.2419 125° Southeast 155 178 9,100 49 Climbing Chicago Center
Fri 12:34:36 AM 41.6947 -86.1933 123° Southeast 156 180 9,100  Level Chicago Center
Fri 12:35:37 AM 41.6725 -86.1431 121° Southeast 158 182 9,100 -50 Level Chicago Center
Fri 12:36:37 AM 41.6492 -86.0944 123° Southeast 157 181 9,000 -99 Descending Chicago Center
Fri 12:37:38 AM 41.6261 -86.0467 123° Southeast 155 178 8,900 -49 Descending Chicago Center
Fri 12:38:39 AM 41.6028 -85.9953 121° Southeast 160 184 8,900  Level Chicago Center
Fri 12:39:40 AM 41.5808 -85.9428 119° Southeast 161 185 8,900  Level Chicago Center
Fri 12:40:41 AM 41.5531 -85.8853 123° Southeast 157 181 8,900 50 Level Chicago Center
Fri 12:41:41 AM 41.5297 -85.8375 123° Southeast 154 177 9,000 50 Climbing Chicago Center
Fri 12:42:42 AM 41.5061 -85.7919 125° Southeast 150 173 9,000 -49 Level Chicago Center
Fri 12:43:43 AM 41.4842 -85.7464 123° Southeast 148 170 8,900 -49 Descending Chicago Center
Fri 12:44:44 AM 41.4611 -85.7011 124° Southeast 148 170 8,900 50 Level Chicago Center
Fri 12:45:44 AM 41.4381 -85.6542 123° Southeast 151 174 9,000 99 Climbing Chicago Center
Fri 12:46:45 AM 41.4139 -85.6103 126° Southeast 148 170 9,100  Climbing Chicago Center
Fri 12:47:46 AM 41.3900 -85.5625 124° Southeast 156 180 9,000  Descending Chicago Center
Fri 12:48:46 AM 41.3681 -85.5169 123° Southeast 150 173 9,100 99 Climbing Chicago Center
Fri 12:49:47 AM 41.3431 -85.4753 129° Southeast 147 169 9,200  Climbing Chicago Center
Fri 12:50:48 AM 41.3219 -85.4306 122° Southeast 145 167 9,100 -49 Descending Chicago Center
Fri 12:51:49 AM 41.3006 -85.3911 126° Southeast 139 160 9,100 -49 Level Chicago Center
Fri 12:52:50 AM 41.2775 -85.3492 126° Southeast 139 160 9,000 -50 Descending Chicago Center
Fri 12:53:50 AM 41.2519 -85.2983 124° Southeast 139 160 9,000  Level Chicago Center
Fri 12:54:51 AM 41.2311 -85.2542 122° Southeast 140 161 9,000 99 Level Chicago Center
Fri 12:55:51 AM 41.2133 -85.2103 118° Southeast 138 159 9,200 50 Climbing Chicago Center
Fri 12:56:52 AM 41.1922 -85.1686 124° Southeast 137 158 9,100 -98 Descending Chicago Center
Fri 12:57:53 AM 41.1694 -85.1258 125° Southeast 139 160 9,000 -99 Descending Chicago Center
Fri 12:58:53 AM 41.1478 -85.0831 124° Southeast 140 161 8,900  Descending Chicago Center
Fri 12:59:54 AM 41.1272 -85.0428 124° Southeast 136 157 9,000 49 Climbing Chicago Center
Fri 01:00:55 AM 41.1067 -85.0031 124° Southeast 133 153 9,000 -50 Level Chicago Center
Fri 01:01:55 AM 41.0856 -84.9622 124° Southeast 134 154 8,900 -50 Descending Chicago Center
Fri 01:02:56 AM 41.0633 -84.9222 126° Southeast 134 154 8,900  Level Chicago Center
Fri 01:03:57 AM 41.0414 -84.8817 126° Southeast 135 155 8,900  Level Chicago Center
Fri 01:04:57 AM 41.0197 -84.8406 125° Southeast 136 157 8,900  Level Chicago Center
Fri 01:05:58 AM 40.9983 -84.7972 123° Southeast 138 159 8,900 37 Level Chicago Center
Fri 01:07:38 AM 40.9617 -84.7269 125° Southeast 138 159 9,000  Climbing Indianapolis Center
Fri 01:07:59 AM 40.9550 -84.7136 124° Southeast 138 159 8,900 -73 Descending Chicago Center
Fri 01:09:00 AM 40.9325 -84.6719 126° Southeast 139 160 8,900 27 Level Chicago Center
Fri 01:10:00 AM 40.9053 -84.6278 129° Southeast  Level FlightAware Approximate
Fri 01:11:40 AM 40.8719 -84.5511 129° Southeast 148 170 9,000  Level Indianapolis Center
Fri 01:12:02 AM 40.8611 -84.5317 126° Southeast 144 166 9,000 -73 Level Chicago Center
Fri 01:13:02 AM 40.8383 -84.4869 124° Southeast 146 168 8,900 -50 Descending Chicago Center
Fri 01:14:03 AM 40.8150 -84.4428 125° Southeast 147 169 8,900  Level Chicago Center
Fri 01:15:03 AM 40.7917 -84.3986 125° Southeast 147 169 8,900  Level Chicago Center
Fri 01:16:04 AM 40.7681 -84.3553 126° Southeast 147 169 8,900 60 Level Chicago Center
Fri 01:16:43 AM 40.7547 -84.3281 123° Southeast 150 173 9,000 61 Climbing Indianapolis Center
Fri 01:17:43 AM 40.7333 -84.2828 122° Southeast 145 167 9,000 -50 Level Indianapolis Center
Fri 01:18:44 AM 40.7075 -84.2425 130° Southeast 144 166 8,900  Descending Indianapolis Center
Fri 01:19:44 AM 40.6836 -84.1989 126° Southeast 146 168 9,000 -50 Climbing Indianapolis Center
Fri 01:20:45 AM 40.6600 -84.1564 126° Southeast 143 165 8,800 -397 Descending Indianapolis Center
Fri 01:21:45 AM 40.6322 -84.1081 127° Southeast 158 182 8,200 -647 Descending Indianapolis Center
Fri 01:22:27 AM 40.6097 -84.0708 129° Southeast 179 206 7,700 -689 Descending Indianapolis Center
Fri 01:22:46 AM 40.6033 -84.0544 117° Southeast 174 200 7,500 -667 Descending Indianapolis Center
Fri 01:23:21 AM 40.5844 -84.0206 126° Southeast 181 208 7,100 -600 Descending Indianapolis Center
Fri 01:23:46 AM 40.5739 -84.0000 124° Southeast 180 207 6,900 -689 Descending Indianapolis Center
Fri 01:24:22 AM 40.5528 -83.9672 130° Southeast 176 203 6,400 -590 Descending Indianapolis Center
Fri 01:24:47 AM 40.5433 -83.9506 127° Southeast 175 201 6,300 -400 Descending Indianapolis Center
Fri 01:25:22 AM 40.5231 -83.9167 128° Southeast 172 198 6,000 -400 Descending Indianapolis Center
Fri 01:25:47 AM 40.5150 -83.8992 121° Southeast 172 198 5,900 -393 Descending Indianapolis Center
Fri 01:26:23 AM 40.4956 -83.8664 128° Southeast 167 192 5,600 -393 Descending Indianapolis Center
Fri 01:26:48 AM 40.4883 -83.8489 118° Southeast 168 193 5,500 -393 Descending Indianapolis Center
Fri 01:27:24 AM 40.4697 -83.8192 129° Southeast 164 189 5,200 -500 Descending Indianapolis Center
Fri 01:27:48 AM 40.4614 -83.7994 119° Southeast 165 190 5,000 -300 Descending Indianapolis Center
Fri 01:28:24 AM 40.4442 -83.7692 127° Southeast 160 184 4,900 -98 Descending Indianapolis Center
Fri 01:28:49 AM 40.4353 -83.7528 125° Southeast 159 183 4,900  Level Indianapolis Center
Fri 01:29:25 AM 40.4203 -83.7250 125° Southeast 152 175 4,900  Level Indianapolis Center
Fri 01:29:49 AM 40.4131 -83.7075 118° Southeast 151 174 4,900 100 Level Indianapolis Center
Fri 01:30:25 AM 40.3983 -83.6811 126° Southeast 141 162 5,000  Climbing Indianapolis Center
Fri 01:30:49 AM 40.3903 -83.6644 122° Southeast 144 166 4,900 -197 Descending Indianapolis Center
Fri 01:31:26 AM 40.3742 -83.6372 128° Southeast 145 167 4,800 -197 Descending Indianapolis Center
Fri 01:31:50 AM 40.3661 -83.6203 122° Southeast 147 169 4,700 -179 Descending Indianapolis Center
Fri 01:32:33 AM 40.3486 -83.5875 125° Southeast 151 174 4,600 -300 Descending Indianapolis Center
Fri 01:32:50 AM 40.3414 -83.5742 125° Southeast 151 174 4,400 -300 Descending Indianapolis Center
Fri 01:33:33 AM 40.3228 -83.5403 126° Southeast 156 180 4,300 -295 Descending Indianapolis Center
Fri 01:33:51 AM 40.3169 -83.5278 121° Southeast 154 177 4,100 -295 Descending Indianapolis Center
Fri 01:34:34 AM 40.2986 -83.4964 127° Southeast 153 176 4,000 -300 Descending Indianapolis Center
Fri 01:34:51 AM 40.2917 -83.4811 121° Southeast 154 177 3,800 -300 Descending Indianapolis Center
Fri 01:35:34 AM 40.2731 -83.4467 125° Southeast 154 177 3,700 -295 Descending Indianapolis Center
Fri 01:35:52 AM 40.2675 -83.4342 120° Southeast 154 177 3,500 -295 Descending Indianapolis Center
Fri 01:36:35 AM 40.2492 -83.4000 125° Southeast 154 177 3,400 -200 Descending Indianapolis Center
Fri 01:36:52 AM 40.2444 -83.3908 124° Southeast 153 176 3,300 -353 Descending Indianapolis Center
Fri 01:38:00 AM 40.2182 -83.3364 122° Southeast  Level FlightAware Approximate
Fri 01:45:00 AM 40.0798 -83.0732 123° Southeast  Level Estimated
Fri 01:46:00 AM 40.0798 -83.0732 123° Southeast  Level Estimated
Fri 01:47:00 AM 40.0798 -83.0732 123° Southeast  Level Estimated

Login

Don't have an account? Register now (free) for customized features, flight alerts, and more!